Antiville, Indiana
Current Conditions -  °F | °C
As of 11:05 PM on Friday 31 Oct 2014 (Local Time) from KMIE Reporting Station
Overcast Overcast  
Wind Chill: 24°   Ceiling: 2700
Heat Index: 35°   Visibility: 10mi
Dew Point: 30°   Wind: 22mph
Humidity: 82%   Direction: 360°N
Pressure: 30.13"   Gusts: NA
Location:  40.4312°N, 85.0058°W
Report Text: KMIE 010305Z AUTO 36019KT 10SM BKN027 OVC032 02/M01 A3013 RMK AO2 PK WND 36026/0254 T00171011
Loading
Personal Weather Stations






























Interactive Weather Map
Tropical Storm Tracking
New forecast layout! Learn more

10-Day Weather Forecast

Advertisements
Track Severe Weather on mobile